createdAt,value
2023-04-15T00:02:00.315Z,4.40
2023-04-15T00:04:30.516Z,4.30
2023-04-15T00:06:57.711Z,5.10
2023-04-15T00:09:25.052Z,4.27
2023-04-15T00:11:52.660Z,4.53
2023-04-15T00:14:19.880Z,5.20
2023-04-15T00:16:47.119Z,5.60
2023-04-15T00:19:14.375Z,7.27
2023-04-15T00:21:42.016Z,5.90
2023-04-15T00:24:09.214Z,5.77
2023-04-15T00:26:38.228Z,5.80
2023-04-15T00:29:05.528Z,6.40
2023-04-15T00:31:33.009Z,5.13
2023-04-15T00:34:00.335Z,6.03
2023-04-15T00:36:27.789Z,7.50
2023-04-15T00:38:54.981Z,7.63
2023-04-15T00:41:23.127Z,4.73
2023-04-15T00:43:50.335Z,4.33
2023-04-15T00:46:18.149Z,4.20
2023-04-15T00:48:45.762Z,3.43
2023-04-15T00:51:13.268Z,4.17
2023-04-15T00:53:40.575Z,3.73
2023-04-15T00:56:08.137Z,3.70
2023-04-15T00:58:35.417Z,4.10
2023-04-15T01:01:02.852Z,4.47
2023-04-15T01:03:30.656Z,5.70
2023-04-15T01:05:58.334Z,7.90
2023-04-15T01:08:32.024Z,9.27
2023-04-15T01:11:01.450Z,9.43
2023-04-15T01:13:28.775Z,8.97
2023-04-15T01:15:57.758Z,8.20
2023-04-15T01:18:25.042Z,8.73
2023-04-15T01:20:52.177Z,9.67
2023-04-15T01:23:19.521Z,8.17
2023-04-15T01:25:47.647Z,7.73
2023-04-15T01:28:14.991Z,7.33
2023-04-15T01:30:42.305Z,6.60
2023-04-15T01:33:09.514Z,6.50
2023-04-15T01:35:37.237Z,7.60
2023-04-15T01:38:08.634Z,7.30
2023-04-15T01:40:36.315Z,7.17
2023-04-15T01:43:03.930Z,8.47
2023-04-15T01:45:31.841Z,9.00
2023-04-15T01:47:59.145Z,7.57
2023-04-15T01:50:27.167Z,6.20
2023-04-15T01:52:54.356Z,5.43
2023-04-15T01:55:21.660Z,6.83
2023-04-15T01:57:51.128Z,11.03
2023-04-15T02:00:18.608Z,15.10
2023-04-15T02:02:45.988Z,13.50
2023-04-15T02:05:13.228Z,11.40
2023-04-15T02:07:40.470Z,10.60
2023-04-15T02:10:07.796Z,11.47
2023-04-15T02:12:34.961Z,10.33
2023-04-15T02:15:02.212Z,9.93
2023-04-15T02:17:29.485Z,8.27
2023-04-15T02:19:57.074Z,9.60
2023-04-15T02:22:24.496Z,9.03
2023-04-15T02:24:51.713Z,8.90
2023-04-15T02:27:19.000Z,9.17
2023-04-15T02:29:46.355Z,8.60
2023-04-15T02:32:14.414Z,7.60
2023-04-15T02:34:42.824Z,6.33
2023-04-15T02:37:10.943Z,6.97
2023-04-15T02:39:38.101Z,7.43
2023-04-15T02:42:06.178Z,6.50
2023-04-15T02:44:35.338Z,7.43
2023-04-15T02:47:03.628Z,7.17
2023-04-15T02:49:31.108Z,6.67
2023-04-15T02:51:59.937Z,6.03
2023-04-15T02:54:28.867Z,6.07
2023-04-15T02:56:56.845Z,5.73
2023-04-15T02:59:24.074Z,5.50
2023-04-15T03:01:51.609Z,4.23
2023-04-15T03:04:18.950Z,4.30
2023-04-15T03:06:46.309Z,4.33
2023-04-15T03:09:13.482Z,4.17
2023-04-15T03:11:42.186Z,4.47
2023-04-15T03:14:09.417Z,4.43
2023-04-15T03:16:36.588Z,5.63
2023-04-15T03:19:03.953Z,4.60
2023-04-15T03:21:31.371Z,4.90
2023-04-15T03:23:58.627Z,5.03
2023-04-15T03:26:29.375Z,6.23
2023-04-15T03:28:57.066Z,5.07
2023-04-15T03:31:24.601Z,5.07
2023-04-15T03:33:51.878Z,5.40
2023-04-15T03:36:19.062Z,5.30
2023-04-15T03:38:46.401Z,5.80
2023-04-15T03:41:13.964Z,6.20
2023-04-15T03:43:41.245Z,6.83
2023-04-15T03:46:08.420Z,4.90
2023-04-15T03:48:35.607Z,5.47
2023-04-15T03:51:02.793Z,4.90
2023-04-15T03:53:29.996Z,5.47
2023-04-15T03:55:57.340Z,4.60
2023-04-15T03:58:24.610Z,4.53
2023-04-15T04:00:51.776Z,6.13
2023-04-15T04:03:19.239Z,6.10
2023-04-15T04:05:46.730Z,5.90
2023-04-15T04:08:14.082Z,5.73
2023-04-15T04:10:41.400Z,5.80
2023-04-15T04:13:08.631Z,6.30
2023-04-15T04:15:36.417Z,13.97
2023-04-15T04:18:03.833Z,8.00
2023-04-15T04:20:32.174Z,7.57
2023-04-15T04:23:02.570Z,7.97
2023-04-15T04:25:29.798Z,12.40
2023-04-15T04:27:57.019Z,9.13
2023-04-15T04:30:24.252Z,11.43
2023-04-15T04:32:51.923Z,10.40
2023-04-15T04:35:19.214Z,8.10
2023-04-15T04:37:46.493Z,12.80
2023-04-15T04:40:13.970Z,10.63
2023-04-15T04:42:41.546Z,7.70
2023-04-15T04:45:08.956Z,6.50
2023-04-15T04:47:36.461Z,6.60
2023-04-15T04:50:03.864Z,5.90
2023-04-15T04:52:31.162Z,5.73
2023-04-15T04:54:58.384Z,5.73
2023-04-15T04:57:25.618Z,5.50
2023-04-15T04:59:52.825Z,4.30
2023-04-15T05:02:20.115Z,5.73
2023-04-15T05:04:47.745Z,5.77
2023-04-15T05:07:19.997Z,5.07
2023-04-15T05:09:47.996Z,4.53
2023-04-15T05:12:15.336Z,4.07
2023-04-15T05:14:43.746Z,5.03
2023-04-15T05:17:11.688Z,5.60
2023-04-15T05:19:38.902Z,5.70
2023-04-15T05:22:06.239Z,5.90
2023-04-15T05:24:33.618Z,6.53
2023-04-15T05:27:01.982Z,6.30
2023-04-15T05:29:29.371Z,6.70
2023-04-15T05:31:56.938Z,6.90
2023-04-15T05:34:24.341Z,6.70
2023-04-15T05:36:52.799Z,6.50
2023-04-15T05:39:20.870Z,6.00
2023-04-15T05:41:48.177Z,5.50
2023-04-15T05:44:15.447Z,6.27
2023-04-15T05:46:43.314Z,9.40
2023-04-15T05:49:10.732Z,9.90
2023-04-15T05:51:37.972Z,6.40
2023-04-15T05:54:05.174Z,7.97
2023-04-15T05:56:32.508Z,6.30
2023-04-15T05:59:00.045Z,5.40
2023-04-15T06:01:28.431Z,5.83
2023-04-15T06:03:56.060Z,5.70
2023-04-15T06:06:23.583Z,6.77
2023-04-15T06:08:51.022Z,6.53
2023-04-15T06:11:18.260Z,6.03
2023-04-15T06:13:45.511Z,5.80
2023-04-15T06:16:12.692Z,5.57
2023-04-15T06:18:40.321Z,5.43
2023-04-15T06:21:08.061Z,5.00
2023-04-15T06:23:36.417Z,5.00
2023-04-15T06:26:03.818Z,4.53
2023-04-15T06:28:31.467Z,4.80
2023-04-15T06:30:58.717Z,4.47
2023-04-15T06:33:26.020Z,3.27
2023-04-15T06:35:53.314Z,3.30
2023-04-15T06:38:22.668Z,3.30
2023-04-15T06:40:49.929Z,2.93
2023-04-15T06:43:19.030Z,3.07
2023-04-15T06:45:46.301Z,3.03
2023-04-15T06:48:13.742Z,3.00
2023-04-15T06:50:41.407Z,3.53
2023-04-15T06:53:08.660Z,5.37
2023-04-15T06:55:35.978Z,5.10
2023-04-15T06:58:03.196Z,5.10
2023-04-15T07:00:30.728Z,4.17
2023-04-15T07:02:57.975Z,4.03
2023-04-15T07:05:25.482Z,4.30
2023-04-15T07:07:53.062Z,4.50
2023-04-15T07:10:20.509Z,4.40
2023-04-15T07:12:49.161Z,4.00
2023-04-15T07:15:19.227Z,7.73
2023-04-15T07:17:46.836Z,5.27
2023-04-15T07:20:14.620Z,3.90
2023-04-15T07:22:41.903Z,2.90
2023-04-15T07:25:09.561Z,2.70
2023-04-15T07:27:36.851Z,3.40
2023-04-15T07:30:04.353Z,3.10
2023-04-15T07:32:31.946Z,2.30
2023-04-15T07:34:59.510Z,2.30
2023-04-15T07:37:26.750Z,2.60
2023-04-15T07:39:54.494Z,2.33
2023-04-15T07:42:22.205Z,1.80
2023-04-15T07:44:49.582Z,1.40
2023-04-15T07:47:16.790Z,1.73
2023-04-15T07:49:44.646Z,1.60
2023-04-15T07:52:12.371Z,1.63
2023-04-15T07:54:39.941Z,1.70
2023-04-15T07:57:07.966Z,1.80
2023-04-15T07:59:35.260Z,1.60
2023-04-15T08:02:02.720Z,2.03
2023-04-15T08:04:30.511Z,2.00
2023-04-15T08:06:58.062Z,1.80
2023-04-15T08:09:27.211Z,1.97
2023-04-15T08:11:54.577Z,1.70
2023-04-15T08:14:22.306Z,2.03
2023-04-15T08:16:49.520Z,1.50
2023-04-15T08:19:17.248Z,1.43
2023-04-15T08:21:44.609Z,2.13
2023-04-15T08:24:12.333Z,2.00
2023-04-15T08:26:39.629Z,1.70
2023-04-15T08:29:07.415Z,1.43
2023-04-15T08:31:34.749Z,1.60
2023-04-15T08:34:02.109Z,1.60
2023-04-15T08:36:29.732Z,1.50
2023-04-15T08:38:57.109Z,1.60
2023-04-15T08:41:25.389Z,1.90
2023-04-15T08:43:54.713Z,6.43
2023-04-15T08:46:22.823Z,1.50
2023-04-15T08:48:51.165Z,1.40
2023-04-15T08:51:18.886Z,1.50
2023-04-15T08:53:47.531Z,1.83
2023-04-15T08:56:16.807Z,1.70
2023-04-15T08:58:47.732Z,1.77
2023-04-15T09:01:15.147Z,1.67
2023-04-15T09:03:42.701Z,1.97
2023-04-15T09:06:10.906Z,1.90
2023-04-15T09:08:40.267Z,1.73
2023-04-15T09:11:07.675Z,2.10
2023-04-15T09:13:35.030Z,2.07
2023-04-15T09:16:09.410Z,1.80
2023-04-15T09:18:37.373Z,1.53
2023-04-15T09:21:08.950Z,2.17
2023-04-15T09:23:36.877Z,2.43
2023-04-15T09:26:04.563Z,2.23
2023-04-15T09:28:32.003Z,2.23
2023-04-15T09:31:00.080Z,2.43
2023-04-15T09:33:28.260Z,2.00
2023-04-15T09:36:00.142Z,2.47
2023-04-15T09:38:27.626Z,2.20
2023-04-15T09:40:55.299Z,1.53
2023-04-15T09:43:22.974Z,2.10
2023-04-15T09:45:51.802Z,1.70
2023-04-15T09:48:23.303Z,2.07
2023-04-15T09:50:51.374Z,2.00
2023-04-15T09:53:19.779Z,2.10
2023-04-15T09:56:08.986Z,1.90
2023-04-15T09:58:38.978Z,1.80
2023-04-15T10:01:08.122Z,1.70
2023-04-15T10:03:39.397Z,2.27
2023-04-15T10:06:06.949Z,2.00
2023-04-15T10:08:35.158Z,5.37
2023-04-15T10:11:05.975Z,4.60
2023-04-15T10:13:35.241Z,2.20
2023-04-15T10:16:07.424Z,1.80
2023-04-15T10:18:41.113Z,2.10
2023-04-15T10:21:09.983Z,1.93
2023-04-15T10:23:37.422Z,1.80
2023-04-15T10:26:05.664Z,1.90
2023-04-15T10:28:33.953Z,2.13
2023-04-15T10:31:01.784Z,2.07
2023-04-15T10:33:29.704Z,1.83
2023-04-15T10:35:57.221Z,1.90
2023-04-15T10:38:38.207Z,2.43
2023-04-15T10:41:24.687Z,2.20
2023-04-15T10:43:55.026Z,1.77
2023-04-15T10:46:38.648Z,1.80
2023-04-15T10:49:12.230Z,2.00
2023-04-15T10:51:43.530Z,2.30
2023-04-15T10:54:14.616Z,1.90
2023-04-15T10:56:45.902Z,1.90
2023-04-15T10:59:13.331Z,1.53
2023-04-15T11:02:16.399Z,1.30
2023-04-15T11:04:52.568Z,1.57
2023-04-15T11:07:41.507Z,1.40
2023-04-15T11:10:14.821Z,1.90
2023-04-15T11:12:42.202Z,2.83
2023-04-15T11:15:28.489Z,2.07
2023-04-15T11:17:57.115Z,2.13
2023-04-15T11:20:24.689Z,2.30
2023-04-15T11:22:53.277Z,2.90
2023-04-15T11:25:40.814Z,2.13
2023-04-15T11:28:08.097Z,2.23
2023-04-15T11:30:37.084Z,2.80
2023-04-15T11:33:05.482Z,2.70
2023-04-15T11:35:33.270Z,2.63
2023-04-15T11:38:03.862Z,2.60
2023-04-15T11:40:33.474Z,2.43
2023-04-15T11:43:07.380Z,2.67
2023-04-15T11:45:34.824Z,2.53
2023-04-15T11:48:06.810Z,2.73
2023-04-15T11:50:34.644Z,3.07
2023-04-15T11:53:08.274Z,3.17
2023-04-15T11:55:47.100Z,2.77
2023-04-15T11:58:18.580Z,4.77
2023-04-15T12:00:52.702Z,3.50
2023-04-15T12:03:24.640Z,2.80
2023-04-15T12:06:13.545Z,3.20
2023-04-15T12:08:56.362Z,7.07
2023-04-15T12:11:29.862Z,3.43
2023-04-15T12:13:58.614Z,3.20
2023-04-15T12:16:26.458Z,3.03
2023-04-15T12:18:56.134Z,2.87
2023-04-15T12:21:24.287Z,2.90
2023-04-15T12:23:52.273Z,3.40
2023-04-15T12:26:26.534Z,3.20
2023-04-15T12:28:59.940Z,3.60
2023-04-15T12:31:27.366Z,3.77
2023-04-15T12:33:58.194Z,3.33
2023-04-15T12:36:29.088Z,3.70
2023-04-15T12:38:56.424Z,4.17
2023-04-15T12:41:24.490Z,3.37
2023-04-15T12:43:51.683Z,3.63
2023-04-15T12:46:19.089Z,2.87
2023-04-15T12:48:46.629Z,3.00
2023-04-15T12:51:14.878Z,3.13
2023-04-15T12:53:42.611Z,3.00
2023-04-15T12:56:09.794Z,3.10
2023-04-15T12:58:37.273Z,3.33
2023-04-15T13:01:04.528Z,2.87
2023-04-15T13:03:31.933Z,2.60
2023-04-15T13:06:00.595Z,3.00
2023-04-15T13:08:27.793Z,2.77
2023-04-15T13:10:55.048Z,2.50
2023-04-15T13:13:22.474Z,2.87
2023-04-15T13:15:50.085Z,5.87
2023-04-15T13:18:17.925Z,3.03
2023-04-15T13:20:45.194Z,3.23
2023-04-15T13:23:13.279Z,2.60
2023-04-15T13:25:41.660Z,2.73
2023-04-15T13:28:08.854Z,2.50
2023-04-15T13:30:36.057Z,2.70
2023-04-15T13:33:03.310Z,2.47
2023-04-15T13:35:30.558Z,2.57
2023-04-15T13:37:57.880Z,2.50
2023-04-15T13:40:25.434Z,2.70
2023-04-15T13:42:53.829Z,2.97
2023-04-15T13:45:21.685Z,2.90
2023-04-15T13:47:49.029Z,2.87
2023-04-15T13:50:16.601Z,3.83
2023-04-15T13:52:43.918Z,3.20
2023-04-15T13:55:19.335Z,5.37
2023-04-15T13:57:47.978Z,4.40
2023-04-15T14:00:15.608Z,4.97
2023-04-15T14:02:43.296Z,5.00
2023-04-15T14:05:11.457Z,5.47
2023-04-15T14:07:38.799Z,5.07
2023-04-15T14:10:06.424Z,4.60
2023-04-15T14:12:33.965Z,5.13
2023-04-15T14:15:02.241Z,4.57
2023-04-15T14:17:29.500Z,4.63
2023-04-15T14:19:56.679Z,5.10
2023-04-15T14:22:23.978Z,4.83
2023-04-15T14:24:53.715Z,4.67
2023-04-15T14:27:20.912Z,5.97
2023-04-15T14:29:49.446Z,7.17
2023-04-15T14:34:44.122Z,7.23
2023-04-15T14:37:11.382Z,5.73
2023-04-15T14:39:38.815Z,6.27
2023-04-15T14:42:06.174Z,6.07
2023-04-15T14:44:33.527Z,5.60
2023-04-15T14:47:00.844Z,5.37
2023-04-15T14:49:28.243Z,4.27
2023-04-15T14:51:55.632Z,4.00
2023-04-15T14:54:22.831Z,4.30
2023-04-15T14:56:50.236Z,4.57
2023-04-15T14:59:17.800Z,4.03
2023-04-15T15:01:45.043Z,4.30
2023-04-15T15:04:13.044Z,4.17
2023-04-15T15:06:40.814Z,4.13
2023-04-15T15:09:08.540Z,4.20
2023-04-15T15:11:35.907Z,4.10
2023-04-15T15:14:03.152Z,4.20
2023-04-15T15:16:31.313Z,5.70
2023-04-15T15:18:58.577Z,4.23
2023-04-15T15:21:27.228Z,3.73
2023-04-15T15:23:54.776Z,4.20
2023-04-15T15:26:22.022Z,3.60
2023-04-15T15:28:50.840Z,3.17
2023-04-15T15:31:18.092Z,3.00
2023-04-15T15:33:45.405Z,2.97
2023-04-15T15:36:12.647Z,3.07
2023-04-15T15:38:41.805Z,2.60
2023-04-15T15:41:09.011Z,2.87
2023-04-15T15:43:36.402Z,3.33
2023-04-15T15:46:04.457Z,3.10
2023-04-15T15:48:31.758Z,2.77
2023-04-15T15:50:58.946Z,2.20
2023-04-15T15:53:26.271Z,2.10
2023-04-15T15:55:53.979Z,2.57
2023-04-15T15:58:21.502Z,2.00
2023-04-15T16:00:48.741Z,2.00
2023-04-15T16:03:16.522Z,2.17
2023-04-15T16:05:44.206Z,3.13
2023-04-15T16:08:11.399Z,2.90
2023-04-15T16:10:39.333Z,2.10
2023-04-15T16:13:06.577Z,2.33
2023-04-15T16:15:34.505Z,2.50
2023-04-15T16:18:04.942Z,2.60
2023-04-15T16:20:32.206Z,2.30
2023-04-15T16:22:59.572Z,2.83
2023-04-15T16:25:26.864Z,4.60
2023-04-15T16:28:05.515Z,3.53
2023-04-15T16:30:37.170Z,4.20
2023-04-15T16:33:05.396Z,4.27
2023-04-15T16:35:34.511Z,2.93
2023-04-15T16:38:01.995Z,3.20
2023-04-15T16:40:29.252Z,3.20
2023-04-15T16:42:56.520Z,3.03
2023-04-15T16:45:23.749Z,3.37
2023-04-15T16:47:51.471Z,3.70
2023-04-15T16:50:18.779Z,3.00
2023-04-15T16:52:46.338Z,3.63
2023-04-15T16:55:13.681Z,3.47
2023-04-15T16:58:01.124Z,3.90
2023-04-15T17:00:29.117Z,3.50
2023-04-15T17:02:56.805Z,4.23
2023-04-15T17:05:24.353Z,3.60
2023-04-15T17:07:51.783Z,3.60
2023-04-15T17:10:18.987Z,3.50
2023-04-15T17:12:46.300Z,3.70
2023-04-15T17:15:13.549Z,3.57
2023-04-15T17:17:40.906Z,3.50
2023-04-15T17:20:08.386Z,3.60
2023-04-15T17:22:35.812Z,3.33
2023-04-15T17:25:04.694Z,4.47
2023-04-15T17:27:31.890Z,3.30
2023-04-15T17:29:59.128Z,3.03
2023-04-15T17:32:31.941Z,3.57
2023-04-15T17:34:59.464Z,3.87
2023-04-15T17:37:27.045Z,4.17
2023-04-15T17:39:54.279Z,3.80
2023-04-15T17:42:22.705Z,3.83
2023-04-15T17:44:50.016Z,3.80
2023-04-15T17:47:17.321Z,3.30
2023-04-15T17:49:44.742Z,3.63
2023-04-15T17:52:11.946Z,3.13
2023-04-15T17:54:39.157Z,3.17
2023-04-15T17:57:06.353Z,3.13
2023-04-15T17:59:34.226Z,3.17
2023-04-15T18:02:01.557Z,3.20
2023-04-15T18:04:29.157Z,3.60
2023-04-15T18:06:56.561Z,3.87
2023-04-15T18:09:23.751Z,3.70
2023-04-15T18:11:50.986Z,3.87
2023-04-15T18:14:33.086Z,7.93
2023-04-15T18:17:01.402Z,4.63
2023-04-15T18:19:28.799Z,4.07
2023-04-15T18:21:56.295Z,6.53
2023-04-15T18:24:23.738Z,4.43
2023-04-15T18:26:51.107Z,4.67
2023-04-15T18:29:18.689Z,4.40
2023-04-15T18:31:46.194Z,3.97
2023-04-15T18:34:13.977Z,3.73
2023-04-15T18:36:41.167Z,4.00
2023-04-15T18:39:08.618Z,3.80
2023-04-15T18:41:35.912Z,3.40
2023-04-15T18:44:03.164Z,3.90
2023-04-15T18:46:30.583Z,3.50
2023-04-15T18:48:57.858Z,3.93
2023-04-15T18:51:25.910Z,4.40
2023-04-15T18:53:53.227Z,4.67
2023-04-15T18:56:20.511Z,4.77
2023-04-15T18:59:23.240Z,3.77
2023-04-15T19:01:35.524Z,3.60
2023-04-15T19:04:03.478Z,4.40
2023-04-15T19:06:31.054Z,3.20
2023-04-15T19:08:58.773Z,2.80
2023-04-15T19:11:26.502Z,2.77
2023-04-15T19:13:53.856Z,2.70
2023-04-15T19:16:22.835Z,1.77
2023-04-15T19:18:50.301Z,2.00
2023-04-15T19:21:17.518Z,1.70
2023-04-15T19:23:44.857Z,2.13
2023-04-15T19:26:12.906Z,1.50
2023-04-15T19:28:40.259Z,2.07
2023-04-15T19:31:07.512Z,2.77
2023-04-15T19:33:35.165Z,2.60
2023-04-15T19:36:04.097Z,2.53
2023-04-15T19:38:31.774Z,1.50
2023-04-15T19:40:59.423Z,1.20
2023-04-15T19:43:26.700Z,1.50
2023-04-15T19:45:54.855Z,1.27
2023-04-15T19:48:23.628Z,1.40
2023-04-15T19:50:52.203Z,2.07
2023-04-15T19:53:19.492Z,1.50
2023-04-15T19:55:48.515Z,1.40
2023-04-15T19:58:16.233Z,1.60
2023-04-15T20:00:43.662Z,1.57
2023-04-15T20:03:11.347Z,1.33
2023-04-15T20:05:39.155Z,3.20
2023-04-15T20:08:06.474Z,2.30
2023-04-15T20:10:33.749Z,3.03
2023-04-15T20:13:01.083Z,3.97
2023-04-15T20:15:28.333Z,3.07
2023-04-15T20:17:55.792Z,2.50
2023-04-15T20:20:23.132Z,2.10
2023-04-15T20:22:50.691Z,2.20
2023-04-15T20:25:18.006Z,1.90
2023-04-15T20:27:45.522Z,1.80
2023-04-15T20:30:12.771Z,1.90
2023-04-15T20:32:40.054Z,1.83
2023-04-15T20:35:07.607Z,1.70
2023-04-15T20:37:36.254Z,1.70
2023-04-15T20:40:03.619Z,2.00
2023-04-15T20:42:34.678Z,2.43
2023-04-15T20:45:02.462Z,2.33
2023-04-15T20:47:29.949Z,3.30
2023-04-15T20:49:57.434Z,1.83
2023-04-15T20:52:24.680Z,2.30
2023-04-15T20:54:52.018Z,5.13
2023-04-15T20:57:20.497Z,5.47
2023-04-15T20:59:47.810Z,3.43
2023-04-15T21:02:15.684Z,2.60
2023-04-15T21:04:43.204Z,2.40
2023-04-15T21:07:10.830Z,2.20
2023-04-15T21:09:41.567Z,2.20
2023-04-15T21:12:11.220Z,2.27
2023-04-15T21:14:38.609Z,2.00
2023-04-15T21:17:11.209Z,3.80
2023-04-15T21:19:38.919Z,8.23
2023-04-15T21:22:06.311Z,5.27
2023-04-15T21:24:33.533Z,2.30
2023-04-15T21:27:02.040Z,2.40
2023-04-15T21:29:29.544Z,3.70
2023-04-15T21:31:57.086Z,3.33
2023-04-15T21:34:24.505Z,4.73
2023-04-15T21:36:51.892Z,4.40
2023-04-15T21:39:19.243Z,2.27
2023-04-15T21:41:46.704Z,3.10
2023-04-15T21:44:15.016Z,2.60
2023-04-15T21:46:45.705Z,2.70
2023-04-15T21:49:13.789Z,2.40
2023-04-15T21:51:41.028Z,4.27
2023-04-15T21:54:08.351Z,2.27
2023-04-15T21:56:36.943Z,2.80
2023-04-15T21:59:04.575Z,2.40
2023-04-15T22:01:32.192Z,10.23
2023-04-15T22:03:59.677Z,4.07
2023-04-15T22:06:27.197Z,6.00
2023-04-15T22:08:57.517Z,7.67
2023-04-15T22:11:30.977Z,11.50
2023-04-15T22:13:59.069Z,2.50
2023-04-15T22:16:27.175Z,4.60
2023-04-15T22:18:54.960Z,3.50
2023-04-15T22:21:22.184Z,1.73
2023-04-15T22:23:49.619Z,3.80
2023-04-15T22:26:16.986Z,1.50
2023-04-15T22:28:44.353Z,2.13
2023-04-15T22:31:11.771Z,3.60
2023-04-15T22:33:39.170Z,1.43
2023-04-15T22:36:06.550Z,1.83
2023-04-15T22:38:33.919Z,3.53
2023-04-15T22:41:01.669Z,3.90
2023-04-15T22:43:29.471Z,4.50
2023-04-15T22:45:56.962Z,5.93
2023-04-15T22:48:24.368Z,2.00
2023-04-15T22:50:51.650Z,2.27
2023-04-15T22:53:21.797Z,2.50
2023-04-15T22:55:49.316Z,1.50
2023-04-15T22:58:18.375Z,1.43
2023-04-15T23:00:45.673Z,1.30
2023-04-15T23:03:13.004Z,1.60
2023-04-15T23:05:41.312Z,1.90
2023-04-15T23:08:08.933Z,1.63
2023-04-15T23:10:36.391Z,1.90
2023-04-15T23:13:03.724Z,1.70
2023-04-15T23:15:31.035Z,1.70
2023-04-15T23:18:00.347Z,1.53
2023-04-15T23:20:27.782Z,1.70
2023-04-15T23:22:55.093Z,1.60
2023-04-15T23:25:22.806Z,1.90
2023-04-15T23:27:50.213Z,1.57
2023-04-15T23:30:17.573Z,1.90
2023-04-15T23:32:44.951Z,1.83
2023-04-15T23:35:12.253Z,1.80
2023-04-15T23:37:39.617Z,1.90
2023-04-15T23:40:07.431Z,2.00
2023-04-15T23:42:34.834Z,2.10
2023-04-15T23:45:02.024Z,1.60
2023-04-15T23:47:29.248Z,1.90
2023-04-15T23:49:56.650Z,1.63
2023-04-15T23:52:24.090Z,1.80
2023-04-15T23:54:51.431Z,1.60
2023-04-15T23:57:18.970Z,1.60
2023-04-15T23:59:46.501Z,1.80
